sensor_id;sensor_type;location;lat;lon;timestamp;P1;durP1;ratioP1;P2;durP2;ratioP2
67685;SDS011;54469;52.090;4.312;2023-05-10T00:00:02;23.8;;;14.2;;
67685;SDS011;54469;52.090;4.312;2023-05-10T00:05:03;23.5;;;13.1;;
67685;SDS011;54469;52.090;4.312;2023-05-10T00:10:03;23.5;;;13.1;;
67685;SDS011;54469;52.090;4.312;2023-05-10T00:15:03;25.8;;;14.3;;
67685;SDS011;54469;52.090;4.312;2023-05-10T00:20:02;32.5;;;16.899999999999995;;
67685;SDS011;54469;52.090;4.312;2023-05-10T00:25:02;33.70000000000001;;;18.8;;
67685;SDS011;54469;52.090;4.312;2023-05-10T00:30:02;31.3;;;17.3;;
67685;SDS011;54469;52.090;4.312;2023-05-10T00:35:03;36.6;;;19.899999999999995;;
67685;SDS011;54469;52.090;4.312;2023-05-10T00:40:03;36.6;;;19.899999999999995;;
67685;SDS011;54469;52.090;4.312;2023-05-10T00:45:03;31.9;;;17.2;;
67685;SDS011;54469;52.090;4.312;2023-05-10T00:50:03;31.9;;;17.2;;
67685;SDS011;54469;52.090;4.312;2023-05-10T00:55:03;36.9;;;18.5;;
67685;SDS011;54469;52.090;4.312;2023-05-10T01:00:03;36;;;19.7;;
67685;SDS011;54469;52.090;4.312;2023-05-10T01:05:02;38.1;;;19.600000000000005;;
67685;SDS011;54469;52.090;4.312;2023-05-10T01:10:03;38.1;;;19.600000000000005;;
67685;SDS011;54469;52.090;4.312;2023-05-10T01:15:03;41.2;;;21;;
67685;SDS011;54469;52.090;4.312;2023-05-10T01:20:02;37.1;;;18.2;;
67685;SDS011;54469;52.090;4.312;2023-05-10T01:25:10;35.1;;;18;;
67685;SDS011;54469;52.090;4.312;2023-05-10T01:30:08;35.1;;;18;;
67685;SDS011;54469;52.090;4.312;2023-05-10T01:35:03;28.5;;;16.5;;
67685;SDS011;54469;52.090;4.312;2023-05-10T01:40:08;33;;;16.6;;
67685;SDS011;54469;52.090;4.312;2023-05-10T01:45:06;28.4;;;15.6;;
67685;SDS011;54469;52.090;4.312;2023-05-10T01:50:03;32.4;;;15.9;;
67685;SDS011;54469;52.090;4.312;2023-05-10T01:55:04;32.4;;;15.9;;
67685;SDS011;54469;52.090;4.312;2023-05-10T02:00:03;37.29999999999999;;;17.399999999999995;;
67685;SDS011;54469;52.090;4.312;2023-05-10T02:05:02;33.4;;;18.399999999999995;;
67685;SDS011;54469;52.090;4.312;2023-05-10T02:10:03;34.70000000000001;;;17.2;;
67685;SDS011;54469;52.090;4.312;2023-05-10T02:15:04;37;;;18.5;;
67685;SDS011;54469;52.090;4.312;2023-05-10T02:20:03;35.1;;;17.2;;
67685;SDS011;54469;52.090;4.312;2023-05-10T02:25:03;28.3;;;12.7;;
67685;SDS011;54469;52.090;4.312;2023-05-10T02:30:02;28.1;;;16.2;;
67685;SDS011;54469;52.090;4.312;2023-05-10T02:35:03;30.7;;;16.1;;
67685;SDS011;54469;52.090;4.312;2023-05-10T02:40:03;30.7;;;16.1;;
67685;SDS011;54469;52.090;4.312;2023-05-10T02:45:04;27.9;;;15;;
67685;SDS011;54469;52.090;4.312;2023-05-10T02:50:03;33.2;;;16.1;;
67685;SDS011;54469;52.090;4.312;2023-05-10T02:55:03;34;;;17.8;;
67685;SDS011;54469;52.090;4.312;2023-05-10T03:00:03;33.5;;;19.5;;
67685;SDS011;54469;52.090;4.312;2023-05-10T03:05:03;32.6;;;17.8;;
67685;SDS011;54469;52.090;4.312;2023-05-10T03:10:03;32.6;;;17.8;;
67685;SDS011;54469;52.090;4.312;2023-05-10T03:15:04;32.6;;;17.8;;
67685;SDS011;54469;52.090;4.312;2023-05-10T03:20:03;34.1;;;19.7;;
67685;SDS011;54469;52.090;4.312;2023-05-10T03:25:04;33.1;;;17.8;;
67685;SDS011;54469;52.090;4.312;2023-05-10T03:30:03;33.1;;;17.8;;
67685;SDS011;54469;52.090;4.312;2023-05-10T03:35:06;34.9;;;19.5;;
67685;SDS011;54469;52.090;4.312;2023-05-10T03:40:02;36.1;;;18.5;;
67685;SDS011;54469;52.090;4.312;2023-05-10T03:45:02;35.5;;;20.100000000000005;;
67685;SDS011;54469;52.090;4.312;2023-05-10T03:50:03;35.5;;;20.100000000000005;;
67685;SDS011;54469;52.090;4.312;2023-05-10T03:55:03;33.5;;;16.899999999999995;;
67685;SDS011;54469;52.090;4.312;2023-05-10T04:00:03;36;;;17.3;;
67685;SDS011;54469;52.090;4.312;2023-05-10T04:05:03;43.8;;;14.9;;
67685;SDS011;54469;52.090;4.312;2023-05-10T04:10:02;90;;;10.7;;
67685;SDS011;54469;52.090;4.312;2023-05-10T04:15:02;52.7;;;8.9;;
67685;SDS011;54469;52.090;4.312;2023-05-10T04:20:02;60.1;;;8.9;;
67685;SDS011;54469;52.090;4.312;2023-05-10T04:25:03;51.9;;;8.6;;
67685;SDS011;54469;52.090;4.312;2023-05-10T04:30:03;31.2;;;7.3;;
67685;SDS011;54469;52.090;4.312;2023-05-10T04:35:02;44.9;;;7.8;;
67685;SDS011;54469;52.090;4.312;2023-05-10T04:40:03;35.70000000000001;;;6.1;;
67685;SDS011;54469;52.090;4.312;2023-05-10T04:45:03;21.4;;;5.9;;
67685;SDS011;54469;52.090;4.312;2023-05-10T04:50:02;17.7;;;6.2;;
67685;SDS011;54469;52.090;4.312;2023-05-10T04:55:02;11.2;;;5.6;;
67685;SDS011;54469;52.090;4.312;2023-05-10T05:00:03;11.2;;;5.6;;
67685;SDS011;54469;52.090;4.312;2023-05-10T05:05:02;11.2;;;5.6;;
67685;SDS011;54469;52.090;4.312;2023-05-10T05:10:03;8.5;;;5.2;;
67685;SDS011;54469;52.090;4.312;2023-05-10T05:15:02;8.5;;;5.2;;
67685;SDS011;54469;52.090;4.312;2023-05-10T05:20:04;6.6;;;4.1;;
67685;SDS011;54469;52.090;4.312;2023-05-10T05:25:03;6.6;;;4.1;;
67685;SDS011;54469;52.090;4.312;2023-05-10T05:30:03;6.6;;;4.1;;
67685;SDS011;54469;52.090;4.312;2023-05-10T05:35:03;4.2;;;2.6;;
67685;SDS011;54469;52.090;4.312;2023-05-10T05:40:03;4.2;;;2.6;;
67685;SDS011;54469;52.090;4.312;2023-05-10T05:45:03;4.2;;;2.6;;
67685;SDS011;54469;52.090;4.312;2023-05-10T05:50:03;4.2;;;2.6;;
67685;SDS011;54469;52.090;4.312;2023-05-10T05:55:03;6.8;;;4.1;;
67685;SDS011;54469;52.090;4.312;2023-05-10T06:00:02;6.8;;;4.1;;
67685;SDS011;54469;52.090;4.312;2023-05-10T06:05:03;6.8;;;4.1;;
67685;SDS011;54469;52.090;4.312;2023-05-10T06:10:03;6.8;;;4.1;;
67685;SDS011;54469;52.090;4.312;2023-05-10T06:15:03;9.4;;;5.2;;
67685;SDS011;54469;52.090;4.312;2023-05-10T06:20:02;13;;;5.9;;
67685;SDS011;54469;52.090;4.312;2023-05-10T06:25:02;13;;;5.9;;
67685;SDS011;54469;52.090;4.312;2023-05-10T06:30:03;13;;;5.9;;
67685;SDS011;54469;52.090;4.312;2023-05-10T06:35:03;14.2;;;7.9;;
67685;SDS011;54469;52.090;4.312;2023-05-10T06:40:03;9.699999999999998;;;5.2;;
67685;SDS011;54469;52.090;4.312;2023-05-10T06:45:03;11.7;;;6;;
67685;SDS011;54469;52.090;4.312;2023-05-10T06:50:03;11.7;;;6;;
67685;SDS011;54469;52.090;4.312;2023-05-10T06:55:03;12.8;;;7.4;;
67685;SDS011;54469;52.090;4.312;2023-05-10T07:00:03;13.1;;;6.2;;
67685;SDS011;54469;52.090;4.312;2023-05-10T07:05:02;10.6;;;5.5;;
67685;SDS011;54469;52.090;4.312;2023-05-10T07:10:02;7.9;;;4.5;;
67685;SDS011;54469;52.090;4.312;2023-05-10T07:15:03;7.9;;;4.5;;
67685;SDS011;54469;52.090;4.312;2023-05-10T07:20:03;7.9;;;4.5;;
67685;SDS011;54469;52.090;4.312;2023-05-10T07:25:03;6.6;;;3.5;;
67685;SDS011;54469;52.090;4.312;2023-05-10T07:30:03;6.6;;;3.5;;
67685;SDS011;54469;52.090;4.312;2023-05-10T07:35:03;6.6;;;3.5;;
67685;SDS011;54469;52.090;4.312;2023-05-10T07:40:03;4.6;;;2.5;;
67685;SDS011;54469;52.090;4.312;2023-05-10T07:45:02;4.6;;;2.5;;
67685;SDS011;54469;52.090;4.312;2023-05-10T07:50:02;5.3;;;3.7;;
67685;SDS011;54469;52.090;4.312;2023-05-10T07:55:03;2.9;;;2;;
67685;SDS011;54469;52.090;4.312;2023-05-10T08:00:03;8.5;;;2.4;;
67685;SDS011;54469;52.090;4.312;2023-05-10T08:05:02;2;;;1.7;;
67685;SDS011;54469;52.090;4.312;2023-05-10T08:10:02;2;;;1.7;;
67685;SDS011;54469;52.090;4.312;2023-05-10T08:15:03;6.7;;;2.7;;
67685;SDS011;54469;52.090;4.312;2023-05-10T08:20:03;6.7;;;2.7;;
67685;SDS011;54469;52.090;4.312;2023-05-10T08:25:03;10.1;;;4.4;;
67685;SDS011;54469;52.090;4.312;2023-05-10T08:30:03;8.300000000000002;;;5.5;;
67685;SDS011;54469;52.090;4.312;2023-05-10T08:35:03;8.300000000000002;;;5.5;;
67685;SDS011;54469;52.090;4.312;2023-05-10T08:40:03;8.300000000000002;;;5.5;;
67685;SDS011;54469;52.090;4.312;2023-05-10T08:45:03;8.300000000000002;;;5.5;;
67685;SDS011;54469;52.090;4.312;2023-05-10T08:50:02;8.300000000000002;;;5.5;;
67685;SDS011;54469;52.090;4.312;2023-05-10T08:55:02;10.4;;;4.8;;
67685;SDS011;54469;52.090;4.312;2023-05-10T09:00:03;10.4;;;4.8;;
67685;SDS011;54469;52.090;4.312;2023-05-10T09:05:08;10.4;;;4.8;;
67685;SDS011;54469;52.090;4.312;2023-05-10T09:10:03;15.4;;;5.6;;
67685;SDS011;54469;52.090;4.312;2023-05-10T09:15:02;11.4;;;5.5;;
67685;SDS011;54469;52.090;4.312;2023-05-10T09:20:03;11.7;;;6.5;;
67685;SDS011;54469;52.090;4.312;2023-05-10T09:25:03;11.7;;;6.5;;
67685;SDS011;54469;52.090;4.312;2023-05-10T09:30:03;11;;;5.3;;
67685;SDS011;54469;52.090;4.312;2023-05-10T09:35:10;11;;;5.3;;
67685;SDS011;54469;52.090;4.312;2023-05-10T09:40:06;11;;;5.3;;
67685;SDS011;54469;52.090;4.312;2023-05-10T09:45:03;7.9;;;4.1;;
67685;SDS011;54469;52.090;4.312;2023-05-10T09:50:03;7.9;;;4.1;;
67685;SDS011;54469;52.090;4.312;2023-05-10T09:55:02;10.4;;;3.9;;
67685;SDS011;54469;52.090;4.312;2023-05-10T10:00:03;10.4;;;3.9;;
67685;SDS011;54469;52.090;4.312;2023-05-10T10:05:02;10.4;;;3.9;;
67685;SDS011;54469;52.090;4.312;2023-05-10T10:10:02;13.4;;;4.6;;
67685;SDS011;54469;52.090;4.312;2023-05-10T10:15:03;12.8;;;5.8;;
67685;SDS011;54469;52.090;4.312;2023-05-10T10:20:03;9.9;;;4.3;;
67685;SDS011;54469;52.090;4.312;2023-05-10T10:25:02;5.6;;;3.7;;
67685;SDS011;54469;52.090;4.312;2023-05-10T10:30:04;5.6;;;3.7;;
67685;SDS011;54469;52.090;4.312;2023-05-10T10:35:03;8.4;;;4.7;;
67685;SDS011;54469;52.090;4.312;2023-05-10T10:40:11;8.4;;;4.7;;
67685;SDS011;54469;52.090;4.312;2023-05-10T10:45:11;8.4;;;4.7;;
67685;SDS011;54469;52.090;4.312;2023-05-10T10:50:03;8.4;;;4.7;;
67685;SDS011;54469;52.090;4.312;2023-05-10T10:55:03;8.4;;;4.7;;
67685;SDS011;54469;52.090;4.312;2023-05-10T11:00:23;8.4;;;4.7;;
67685;SDS011;54469;52.090;4.312;2023-05-10T11:05:23;12.1;;;5.2;;
67685;SDS011;54469;52.090;4.312;2023-05-10T11:10:04;12.1;;;5.2;;
67685;SDS011;54469;52.090;4.312;2023-05-10T11:15:03;12.1;;;5.2;;
67685;SDS011;54469;52.090;4.312;2023-05-10T11:20:06;14.7;;;6.3;;
67685;SDS011;54469;52.090;4.312;2023-05-10T11:25:02;11.7;;;5.6;;
67685;SDS011;54469;52.090;4.312;2023-05-10T11:30:04;11.7;;;5.6;;
67685;SDS011;54469;52.090;4.312;2023-05-10T11:35:06;13.7;;;6.1;;
67685;SDS011;54469;52.090;4.312;2023-05-10T11:40:03;13.7;;;6.1;;
67685;SDS011;54469;52.090;4.312;2023-05-10T11:45:03;13.7;;;6.1;;
67685;SDS011;54469;52.090;4.312;2023-05-10T11:50:03;18.5;;;7.3;;
67685;SDS011;54469;52.090;4.312;2023-05-10T11:55:03;13;;;6.2;;
67685;SDS011;54469;52.090;4.312;2023-05-10T12:00:03;13;;;6.2;;
67685;SDS011;54469;52.090;4.312;2023-05-10T12:05:03;13;;;6.2;;
67685;SDS011;54469;52.090;4.312;2023-05-10T12:10:05;16.2;;;8.1;;
67685;SDS011;54469;52.090;4.312;2023-05-10T12:15:03;12.8;;;7.2;;
67685;SDS011;54469;52.090;4.312;2023-05-10T12:20:12;17.100000000000005;;;7.1;;
67685;SDS011;54469;52.090;4.312;2023-05-10T12:25:02;17.100000000000005;;;7.1;;
67685;SDS011;54469;52.090;4.312;2023-05-10T12:30:03;13.8;;;6.7;;
67685;SDS011;54469;52.090;4.312;2023-05-10T12:35:03;13.8;;;6.7;;
67685;SDS011;54469;52.090;4.312;2023-05-10T12:40:03;17.399999999999995;;;7.9;;
67685;SDS011;54469;52.090;4.312;2023-05-10T12:45:03;13.7;;;6.9;;
67685;SDS011;54469;52.090;4.312;2023-05-10T12:50:03;13.7;;;6.9;;
67685;SDS011;54469;52.090;4.312;2023-05-10T12:55:03;13.7;;;6.9;;
67685;SDS011;54469;52.090;4.312;2023-05-10T13:00:03;13.7;;;6.9;;
67685;SDS011;54469;52.090;4.312;2023-05-10T13:05:03;13.7;;;6.9;;
67685;SDS011;54469;52.090;4.312;2023-05-10T13:10:03;30.8;;;19.8;;
67685;SDS011;54469;52.090;4.312;2023-05-10T13:15:03;11.5;;;6.7;;
67685;SDS011;54469;52.090;4.312;2023-05-10T13:20:03;11.5;;;6.7;;
67685;SDS011;54469;52.090;4.312;2023-05-10T13:25:02;9.9;;;5.2;;
67685;SDS011;54469;52.090;4.312;2023-05-10T13:30:03;15.1;;;7.7;;
67685;SDS011;54469;52.090;4.312;2023-05-10T13:35:03;7.1;;;4.5;;
67685;SDS011;54469;52.090;4.312;2023-05-10T13:40:02;7.1;;;4.5;;
67685;SDS011;54469;52.090;4.312;2023-05-10T13:45:03;7.1;;;4.5;;
67685;SDS011;54469;52.090;4.312;2023-05-10T13:50:02;7.1;;;4.5;;
67685;SDS011;54469;52.090;4.312;2023-05-10T13:55:02;7.1;;;4.5;;
67685;SDS011;54469;52.090;4.312;2023-05-10T14:00:02;7.1;;;4.5;;
67685;SDS011;54469;52.090;4.312;2023-05-10T14:05:03;5.1;;;3.7;;
67685;SDS011;54469;52.090;4.312;2023-05-10T14:10:03;5.1;;;3.7;;
67685;SDS011;54469;52.090;4.312;2023-05-10T14:15:03;5.1;;;3.7;;
67685;SDS011;54469;52.090;4.312;2023-05-10T14:20:02;8.6;;;4.8;;
67685;SDS011;54469;52.090;4.312;2023-05-10T14:25:03;9.800000000000002;;;5.8;;
67685;SDS011;54469;52.090;4.312;2023-05-10T14:30:03;6.1;;;3.7;;
67685;SDS011;54469;52.090;4.312;2023-05-10T14:35:03;6.1;;;3.7;;
67685;SDS011;54469;52.090;4.312;2023-05-10T14:40:03;6.1;;;3.7;;
67685;SDS011;54469;52.090;4.312;2023-05-10T14:45:03;6.1;;;3.7;;
67685;SDS011;54469;52.090;4.312;2023-05-10T14:50:02;6.1;;;3.7;;
67685;SDS011;54469;52.090;4.312;2023-05-10T14:55:02;6.1;;;3.7;;
67685;SDS011;54469;52.090;4.312;2023-05-10T15:00:03;6.1;;;3.7;;
67685;SDS011;54469;52.090;4.312;2023-05-10T15:05:03;6.1;;;3.7;;
67685;SDS011;54469;52.090;4.312;2023-05-10T15:10:03;6.1;;;3.7;;
67685;SDS011;54469;52.090;4.312;2023-05-10T15:15:03;10.5;;;6.9;;
67685;SDS011;54469;52.090;4.312;2023-05-10T15:20:02;7.4;;;4.8;;
67685;SDS011;54469;52.090;4.312;2023-05-10T15:25:02;7.4;;;4.8;;
67685;SDS011;54469;52.090;4.312;2023-05-10T15:30:03;9.699999999999998;;;5.9;;
67685;SDS011;54469;52.090;4.312;2023-05-10T15:35:03;9.699999999999998;;;5.9;;
67685;SDS011;54469;52.090;4.312;2023-05-10T15:40:03;12.1;;;7.9;;
67685;SDS011;54469;52.090;4.312;2023-05-10T15:45:03;12.1;;;7.9;;
67685;SDS011;54469;52.090;4.312;2023-05-10T15:50:03;12.1;;;7.9;;
67685;SDS011;54469;52.090;4.312;2023-05-10T15:55:03;21.4;;;9.800000000000002;;
67685;SDS011;54469;52.090;4.312;2023-05-10T16:00:03;14.2;;;8.4;;
67685;SDS011;54469;52.090;4.312;2023-05-10T16:05:08;12.7;;;7;;
67685;SDS011;54469;52.090;4.312;2023-05-10T16:10:02;15.3;;;7.8;;
67685;SDS011;54469;52.090;4.312;2023-05-10T16:15:02;12;;;6.6;;
67685;SDS011;54469;52.090;4.312;2023-05-10T16:20:02;12;;;6.6;;
67685;SDS011;54469;52.090;4.312;2023-05-10T16:25:03;14.4;;;7.9;;
67685;SDS011;54469;52.090;4.312;2023-05-10T16:30:02;11.6;;;7.5;;
67685;SDS011;54469;52.090;4.312;2023-05-10T16:35:02;11.6;;;7.5;;
67685;SDS011;54469;52.090;4.312;2023-05-10T16:40:08;9.6;;;6.2;;
67685;SDS011;54469;52.090;4.312;2023-05-10T16:45:02;9.6;;;6.2;;
67685;SDS011;54469;52.090;4.312;2023-05-10T16:50:03;9.6;;;6.2;;
67685;SDS011;54469;52.090;4.312;2023-05-10T16:55:02;14.6;;;7.1;;
67685;SDS011;54469;52.090;4.312;2023-05-10T17:00:03;14.6;;;7.1;;
67685;SDS011;54469;52.090;4.312;2023-05-10T17:05:02;14.6;;;7.1;;
67685;SDS011;54469;52.090;4.312;2023-05-10T17:10:02;14.6;;;7.1;;
67685;SDS011;54469;52.090;4.312;2023-05-10T17:15:03;14.6;;;7.1;;
67685;SDS011;54469;52.090;4.312;2023-05-10T17:20:02;11.5;;;7.2;;
67685;SDS011;54469;52.090;4.312;2023-05-10T17:25:02;11.5;;;7.2;;
67685;SDS011;54469;52.090;4.312;2023-05-10T17:30:03;11.5;;;7.2;;
67685;SDS011;54469;52.090;4.312;2023-05-10T17:35:03;11.1;;;6.1;;
67685;SDS011;54469;52.090;4.312;2023-05-10T17:40:03;11.1;;;6.1;;
67685;SDS011;54469;52.090;4.312;2023-05-10T17:45:03;13.6;;;6.6;;
67685;SDS011;54469;52.090;4.312;2023-05-10T17:50:04;16.5;;;6.7;;
67685;SDS011;54469;52.090;4.312;2023-05-10T17:55:03;16.5;;;6.7;;
67685;SDS011;54469;52.090;4.312;2023-05-10T18:00:03;16.5;;;6.7;;
67685;SDS011;54469;52.090;4.312;2023-05-10T18:05:02;16.5;;;6.7;;
67685;SDS011;54469;52.090;4.312;2023-05-10T18:10:02;12.8;;;7;;
67685;SDS011;54469;52.090;4.312;2023-05-10T18:15:03;17.399999999999995;;;6.9;;
67685;SDS011;54469;52.090;4.312;2023-05-10T18:20:03;16.3;;;8.300000000000002;;
67685;SDS011;54469;52.090;4.312;2023-05-10T18:25:03;16.3;;;8.300000000000002;;
67685;SDS011;54469;52.090;4.312;2023-05-10T18:30:03;19.100000000000005;;;8.4;;
67685;SDS011;54469;52.090;4.312;2023-05-10T18:35:03;19.100000000000005;;;8.4;;
67685;SDS011;54469;52.090;4.312;2023-05-10T18:40:02;19.100000000000005;;;8.4;;
67685;SDS011;54469;52.090;4.312;2023-05-10T18:45:02;16.1;;;8.5;;
67685;SDS011;54469;52.090;4.312;2023-05-10T18:50:03;19.100000000000005;;;9.1;;
67685;SDS011;54469;52.090;4.312;2023-05-10T18:55:03;19.100000000000005;;;9.1;;
67685;SDS011;54469;52.090;4.312;2023-05-10T19:00:03;20.399999999999995;;;10.7;;
67685;SDS011;54469;52.090;4.312;2023-05-10T19:05:03;13.3;;;7.5;;
67685;SDS011;54469;52.090;4.312;2023-05-10T19:10:03;13.3;;;7.5;;
67685;SDS011;54469;52.090;4.312;2023-05-10T19:15:03;13.3;;;7.5;;
67685;SDS011;54469;52.090;4.312;2023-05-10T19:20:03;16.1;;;9.4;;
67685;SDS011;54469;52.090;4.312;2023-05-10T19:25:02;16.3;;;8.300000000000002;;
67685;SDS011;54469;52.090;4.312;2023-05-10T19:30:03;14.2;;;8.199999999999998;;
67685;SDS011;54469;52.090;4.312;2023-05-10T19:35:03;19.8;;;9.699999999999998;;
67685;SDS011;54469;52.090;4.312;2023-05-10T19:40:03;15.6;;;7.8;;
67685;SDS011;54469;52.090;4.312;2023-05-10T19:45:02;15.6;;;7.8;;
67685;SDS011;54469;52.090;4.312;2023-05-10T19:50:02;18.2;;;9.6;;
67685;SDS011;54469;52.090;4.312;2023-05-10T19:55:03;16.8;;;7.7;;
67685;SDS011;54469;52.090;4.312;2023-05-10T20:00:03;13.5;;;7.2;;
67685;SDS011;54469;52.090;4.312;2023-05-10T20:05:02;5.2;;;4.2;;
67685;SDS011;54469;52.090;4.312;2023-05-10T20:10:03;6.8;;;5.3;;
67685;SDS011;54469;52.090;4.312;2023-05-10T20:15:04;5.5;;;4.2;;
67685;SDS011;54469;52.090;4.312;2023-05-10T20:20:03;5.5;;;4.2;;
67685;SDS011;54469;52.090;4.312;2023-05-10T20:25:03;5.5;;;4.2;;
67685;SDS011;54469;52.090;4.312;2023-05-10T20:30:03;9.1;;;5.9;;
67685;SDS011;54469;52.090;4.312;2023-05-10T20:35:03;9.1;;;5.9;;
67685;SDS011;54469;52.090;4.312;2023-05-10T20:40:02;9.1;;;5.9;;
67685;SDS011;54469;52.090;4.312;2023-05-10T20:45:02;9.1;;;5.9;;
67685;SDS011;54469;52.090;4.312;2023-05-10T20:50:05;9.1;;;5.9;;
67685;SDS011;54469;52.090;4.312;2023-05-10T20:55:03;9.1;;;5.9;;
67685;SDS011;54469;52.090;4.312;2023-05-10T21:00:03;9.1;;;5.9;;
67685;SDS011;54469;52.090;4.312;2023-05-10T21:05:03;10.3;;;7.5;;
67685;SDS011;54469;52.090;4.312;2023-05-10T21:10:03;7.9;;;5.8;;
67685;SDS011;54469;52.090;4.312;2023-05-10T21:15:02;7.9;;;5.8;;
67685;SDS011;54469;52.090;4.312;2023-05-10T21:20:02;11.4;;;6.7;;
67685;SDS011;54469;52.090;4.312;2023-05-10T21:25:03;11.4;;;6.7;;
67685;SDS011;54469;52.090;4.312;2023-05-10T21:30:03;7.4;;;6.2;;
67685;SDS011;54469;52.090;4.312;2023-05-10T21:35:03;9.5;;;6.7;;
67685;SDS011;54469;52.090;4.312;2023-05-10T21:40:03;9.5;;;6.7;;
67685;SDS011;54469;52.090;4.312;2023-05-10T21:45:09;9.5;;;6.7;;
67685;SDS011;54469;52.090;4.312;2023-05-10T21:50:02;10.8;;;7.8;;
67685;SDS011;54469;52.090;4.312;2023-05-10T21:55:03;13.4;;;8.800000000000002;;
67685;SDS011;54469;52.090;4.312;2023-05-10T22:00:03;13.4;;;8.800000000000002;;
67685;SDS011;54469;52.090;4.312;2023-05-10T22:05:04;14.2;;;9.9;;
67685;SDS011;54469;52.090;4.312;2023-05-10T22:10:03;12.4;;;8.4;;
67685;SDS011;54469;52.090;4.312;2023-05-10T22:15:03;9.800000000000002;;;6.4;;
67685;SDS011;54469;52.090;4.312;2023-05-10T22:20:03;9.800000000000002;;;6.4;;
67685;SDS011;54469;52.090;4.312;2023-05-10T22:25:03;9.800000000000002;;;6.4;;
67685;SDS011;54469;52.090;4.312;2023-05-10T22:30:02;9.800000000000002;;;6.4;;
67685;SDS011;54469;52.090;4.312;2023-05-10T22:35:02;9.800000000000002;;;6.4;;
67685;SDS011;54469;52.090;4.312;2023-05-10T22:40:02;9.800000000000002;;;6.4;;
67685;SDS011;54469;52.090;4.312;2023-05-10T22:45:02;9.800000000000002;;;6.4;;
67685;SDS011;54469;52.090;4.312;2023-05-10T22:50:03;9.800000000000002;;;6.4;;
67685;SDS011;54469;52.090;4.312;2023-05-10T22:55:02;9.800000000000002;;;6.4;;
67685;SDS011;54469;52.090;4.312;2023-05-10T23:00:03;12;;;7.3;;
67685;SDS011;54469;52.090;4.312;2023-05-10T23:05:02;12;;;7.3;;
67685;SDS011;54469;52.090;4.312;2023-05-10T23:10:02;14;;;8;;
67685;SDS011;54469;52.090;4.312;2023-05-10T23:15:03;14;;;8;;
67685;SDS011;54469;52.090;4.312;2023-05-10T23:20:03;14;;;8;;
67685;SDS011;54469;52.090;4.312;2023-05-10T23:25:03;11.6;;;7.3;;
67685;SDS011;54469;52.090;4.312;2023-05-10T23:30:02;11.6;;;7.3;;
67685;SDS011;54469;52.090;4.312;2023-05-10T23:35:02;11.6;;;7.3;;
67685;SDS011;54469;52.090;4.312;2023-05-10T23:40:03;11.6;;;7.3;;
67685;SDS011;54469;52.090;4.312;2023-05-10T23:45:02;11.6;;;7.3;;
67685;SDS011;54469;52.090;4.312;2023-05-10T23:50:03;11.6;;;7.3;;
67685;SDS011;54469;52.090;4.312;2023-05-10T23:55:03;11.6;;;7.3;;
